sensor_id;sensor_type;location;lat;lon;timestamp;temperature;humidity
68766;DHT22;55756;45.582;11.484;2022-09-03T00:00:54;20.90;67.80
68766;DHT22;55756;45.582;11.484;2022-09-03T00:03:30;20.90;68.00
68766;DHT22;55756;45.582;11.484;2022-09-03T00:06:09;20.80;67.40
68766;DHT22;55756;45.582;11.484;2022-09-03T00:14:15;20.80;67.80
68766;DHT22;55756;45.582;11.484;2022-09-03T00:19:12;20.90;67.90
68766;DHT22;55756;45.582;11.484;2022-09-03T00:21:46;20.90;68.10
68766;DHT22;55756;45.582;11.484;2022-09-03T00:24:16;20.90;68.10
68766;DHT22;55756;45.582;11.484;2022-09-03T00:26:46;20.90;68.10
68766;DHT22;55756;45.582;11.484;2022-09-03T00:29:18;20.90;68.50
68766;DHT22;55756;45.582;11.484;2022-09-03T00:31:49;20.80;68.70
68766;DHT22;55756;45.582;11.484;2022-09-03T00:34:38;20.80;68.70
68766;DHT22;55756;45.582;11.484;2022-09-03T00:37:09;20.90;68.40
68766;DHT22;55756;45.582;11.484;2022-09-03T00:39:36;21.00;68.30
68766;DHT22;55756;45.582;11.484;2022-09-03T00:53:13;20.90;68.20
68766;DHT22;55756;45.582;11.484;2022-09-03T01:01:20;20.70;67.50
68766;DHT22;55756;45.582;11.484;2022-09-03T01:09:23;20.30;69.90
68766;DHT22;55756;45.582;11.484;2022-09-03T01:25:42;20.40;70.50
68766;DHT22;55756;45.582;11.484;2022-09-03T01:28:28;20.40;70.30
68766;DHT22;55756;45.582;11.484;2022-09-03T01:31:10;20.50;70.20
68766;DHT22;55756;45.582;11.484;2022-09-03T01:33:48;20.50;69.90
68766;DHT22;55756;45.582;11.484;2022-09-03T01:37:00;20.50;69.80
68766;DHT22;55756;45.582;11.484;2022-09-03T01:45:36;20.50;69.60
68766;DHT22;55756;45.582;11.484;2022-09-03T01:48:31;20.50;69.70
68766;DHT22;55756;45.582;11.484;2022-09-03T02:00:03;20.20;70.30
68766;DHT22;55756;45.582;11.484;2022-09-03T02:02:22;20.10;70.70
68766;DHT22;55756;45.582;11.484;2022-09-03T02:04:55;19.90;71.70
68766;DHT22;55756;45.582;11.484;2022-09-03T02:07:23;19.90;72.00
68766;DHT22;55756;45.582;11.484;2022-09-03T02:09:49;20.00;71.90
68766;DHT22;55756;45.582;11.484;2022-09-03T02:12:17;20.00;72.00
68766;DHT22;55756;45.582;11.484;2022-09-03T02:14:45;20.00;72.00
68766;DHT22;55756;45.582;11.484;2022-09-03T02:17:11;20.00;72.00
68766;DHT22;55756;45.582;11.484;2022-09-03T02:19:38;20.00;71.90
68766;DHT22;55756;45.582;11.484;2022-09-03T02:22:04;20.00;71.90
68766;DHT22;55756;45.582;11.484;2022-09-03T02:24:30;19.90;72.10
68766;DHT22;55756;45.582;11.484;2022-09-03T02:26:57;20.00;72.10
68766;DHT22;55756;45.582;11.484;2022-09-03T02:29:23;19.90;72.00
68766;DHT22;55756;45.582;11.484;2022-09-03T02:31:50;19.90;71.40
68766;DHT22;55756;45.582;11.484;2022-09-03T02:34:16;19.80;71.30
68766;DHT22;55756;45.582;11.484;2022-09-03T02:36:44;19.70;70.90
68766;DHT22;55756;45.582;11.484;2022-09-03T02:39:12;19.70;70.40
68766;DHT22;55756;45.582;11.484;2022-09-03T02:41:38;19.90;70.20
68766;DHT22;55756;45.582;11.484;2022-09-03T02:47:00;19.90;70.10
68766;DHT22;55756;45.582;11.484;2022-09-03T02:49:27;20.00;70.00
68766;DHT22;55756;45.582;11.484;2022-09-03T02:52:08;20.00;69.90
68766;DHT22;55756;45.582;11.484;2022-09-03T02:54:37;20.00;69.90
68766;DHT22;55756;45.582;11.484;2022-09-03T02:57:11;19.90;70.30
68766;DHT22;55756;45.582;11.484;2022-09-03T02:59:38;19.90;70.20
68766;DHT22;55756;45.582;11.484;2022-09-03T03:02:04;19.90;70.20
68766;DHT22;55756;45.582;11.484;2022-09-03T03:04:31;19.70;70.40
68766;DHT22;55756;45.582;11.484;2022-09-03T03:06:58;19.60;70.50
68766;DHT22;55756;45.582;11.484;2022-09-03T03:09:24;19.50;70.70
68766;DHT22;55756;45.582;11.484;2022-09-03T03:11:50;19.50;70.90
68766;DHT22;55756;45.582;11.484;2022-09-03T03:14:17;19.40;71.30
68766;DHT22;55756;45.582;11.484;2022-09-03T03:16:43;19.40;71.50
68766;DHT22;55756;45.582;11.484;2022-09-03T03:19:09;19.30;71.80
68766;DHT22;55756;45.582;11.484;2022-09-03T03:21:35;19.30;72.10
68766;DHT22;55756;45.582;11.484;2022-09-03T03:24:01;19.30;72.10
68766;DHT22;55756;45.582;11.484;2022-09-03T03:26:28;19.30;72.30
68766;DHT22;55756;45.582;11.484;2022-09-03T03:28:59;19.10;72.60
68766;DHT22;55756;45.582;11.484;2022-09-03T03:31:26;19.10;72.80
68766;DHT22;55756;45.582;11.484;2022-09-03T03:33:53;19.10;73.00
68766;DHT22;55756;45.582;11.484;2022-09-03T03:36:20;19.10;73.00
68766;DHT22;55756;45.582;11.484;2022-09-03T03:38:46;19.10;72.90
68766;DHT22;55756;45.582;11.484;2022-09-03T03:41:18;19.10;72.90
68766;DHT22;55756;45.582;11.484;2022-09-03T03:43:46;19.20;72.80
68766;DHT22;55756;45.582;11.484;2022-09-03T03:46:13;19.30;72.80
68766;DHT22;55756;45.582;11.484;2022-09-03T03:48:41;19.30;72.60
68766;DHT22;55756;45.582;11.484;2022-09-03T03:51:08;19.30;72.60
68766;DHT22;55756;45.582;11.484;2022-09-03T03:53:36;19.30;72.60
68766;DHT22;55756;45.582;11.484;2022-09-03T03:56:04;19.40;72.50
68766;DHT22;55756;45.582;11.484;2022-09-03T03:58:32;19.40;72.30
68766;DHT22;55756;45.582;11.484;2022-09-03T04:01:06;19.50;72.20
68766;DHT22;55756;45.582;11.484;2022-09-03T04:03:33;19.50;72.00
68766;DHT22;55756;45.582;11.484;2022-09-03T04:05:59;19.40;71.80
68766;DHT22;55756;45.582;11.484;2022-09-03T04:08:28;19.50;71.50
68766;DHT22;55756;45.582;11.484;2022-09-03T04:10:59;19.60;71.10
68766;DHT22;55756;45.582;11.484;2022-09-03T04:13:31;19.60;70.90
68766;DHT22;55756;45.582;11.484;2022-09-03T04:16:05;19.60;70.70
68766;DHT22;55756;45.582;11.484;2022-09-03T04:18:32;19.60;70.80
68766;DHT22;55756;45.582;11.484;2022-09-03T04:21:06;19.70;70.50
68766;DHT22;55756;45.582;11.484;2022-09-03T04:23:34;19.70;70.50
68766;DHT22;55756;45.582;11.484;2022-09-03T04:26:01;19.70;70.60
68766;DHT22;55756;45.582;11.484;2022-09-03T04:28:27;19.70;70.60
68766;DHT22;55756;45.582;11.484;2022-09-03T04:30:53;19.80;70.60
68766;DHT22;55756;45.582;11.484;2022-09-03T04:33:19;19.80;70.60
68766;DHT22;55756;45.582;11.484;2022-09-03T04:35:45;19.80;70.40
68766;DHT22;55756;45.582;11.484;2022-09-03T04:38:11;19.80;70.40
68766;DHT22;55756;45.582;11.484;2022-09-03T04:40:37;19.80;70.40
68766;DHT22;55756;45.582;11.484;2022-09-03T04:43:03;19.80;70.60
68766;DHT22;55756;45.582;11.484;2022-09-03T04:45:29;19.80;70.60
68766;DHT22;55756;45.582;11.484;2022-09-03T04:48:04;19.80;70.70
68766;DHT22;55756;45.582;11.484;2022-09-03T04:50:31;19.80;70.70
68766;DHT22;55756;45.582;11.484;2022-09-03T04:53:01;19.80;70.30
68766;DHT22;55756;45.582;11.484;2022-09-03T04:55:31;19.80;70.30
68766;DHT22;55756;45.582;11.484;2022-09-03T04:57:58;19.80;70.30
68766;DHT22;55756;45.582;11.484;2022-09-03T05:00:23;19.80;70.30
68766;DHT22;55756;45.582;11.484;2022-09-03T05:02:49;19.90;70.10
68766;DHT22;55756;45.582;11.484;2022-09-03T05:05:16;20.00;70.30
68766;DHT22;55756;45.582;11.484;2022-09-03T05:07:43;20.10;70.10
68766;DHT22;55756;45.582;11.484;2022-09-03T05:10:11;20.10;70.00
68766;DHT22;55756;45.582;11.484;2022-09-03T05:12:38;20.20;69.90
68766;DHT22;55756;45.582;11.484;2022-09-03T05:15:04;20.30;69.80
68766;DHT22;55756;45.582;11.484;2022-09-03T05:17:30;20.30;69.70
68766;DHT22;55756;45.582;11.484;2022-09-03T05:19:56;20.50;69.60
68766;DHT22;55756;45.582;11.484;2022-09-03T05:22:22;20.70;69.10
68766;DHT22;55756;45.582;11.484;2022-09-03T05:24:48;20.80;68.50
68766;DHT22;55756;45.582;11.484;2022-09-03T05:27:15;21.00;67.60
68766;DHT22;55756;45.582;11.484;2022-09-03T05:29:44;21.30;66.70
68766;DHT22;55756;45.582;11.484;2022-09-03T05:32:10;21.50;65.70
68766;DHT22;55756;45.582;11.484;2022-09-03T05:34:38;21.70;64.90
68766;DHT22;55756;45.582;11.484;2022-09-03T05:37:04;21.80;64.50
68766;DHT22;55756;45.582;11.484;2022-09-03T05:39:29;21.90;63.90
68766;DHT22;55756;45.582;11.484;2022-09-03T05:41:55;21.90;64.40
68766;DHT22;55756;45.582;11.484;2022-09-03T05:44:21;22.10;64.70
68766;DHT22;55756;45.582;11.484;2022-09-03T05:46:48;22.50;64.30
68766;DHT22;55756;45.582;11.484;2022-09-03T05:49:14;23.20;62.80
68766;DHT22;55756;45.582;11.484;2022-09-03T05:51:40;23.90;60.30
68766;DHT22;55756;45.582;11.484;2022-09-03T05:54:07;24.50;58.00
68766;DHT22;55756;45.582;11.484;2022-09-03T05:56:35;24.60;57.00
68766;DHT22;55756;45.582;11.484;2022-09-03T05:59:03;24.80;56.00
68766;DHT22;55756;45.582;11.484;2022-09-03T06:01:39;24.80;55.70
68766;DHT22;55756;45.582;11.484;2022-09-03T06:04:07;24.70;55.80
68766;DHT22;55756;45.582;11.484;2022-09-03T06:06:34;24.70;56.00
68766;DHT22;55756;45.582;11.484;2022-09-03T06:09:06;24.70;55.70
68766;DHT22;55756;45.582;11.484;2022-09-03T06:11:33;24.60;55.50
68766;DHT22;55756;45.582;11.484;2022-09-03T06:14:01;24.50;56.00
68766;DHT22;55756;45.582;11.484;2022-09-03T06:16:31;24.60;55.60
68766;DHT22;55756;45.582;11.484;2022-09-03T06:19:02;24.90;55.50
68766;DHT22;55756;45.582;11.484;2022-09-03T06:21:28;25.10;54.30
68766;DHT22;55756;45.582;11.484;2022-09-03T06:23:55;25.60;53.00
68766;DHT22;55756;45.582;11.484;2022-09-03T06:26:22;26.00;51.40
68766;DHT22;55756;45.582;11.484;2022-09-03T06:28:48;26.50;50.60
68766;DHT22;55756;45.582;11.484;2022-09-03T06:31:16;26.90;50.00
68766;DHT22;55756;45.582;11.484;2022-09-03T06:33:43;27.20;49.80
68766;DHT22;55756;45.582;11.484;2022-09-03T06:36:12;27.80;49.40
68766;DHT22;55756;45.582;11.484;2022-09-03T06:38:39;28.30;47.60
68766;DHT22;55756;45.582;11.484;2022-09-03T06:41:13;28.80;45.90
68766;DHT22;55756;45.582;11.484;2022-09-03T06:43:45;29.40;44.90
68766;DHT22;55756;45.582;11.484;2022-09-03T06:46:13;28.70;45.50
68766;DHT22;55756;45.582;11.484;2022-09-03T06:48:41;28.50;45.80
68766;DHT22;55756;45.582;11.484;2022-09-03T06:51:09;28.60;46.00
68766;DHT22;55756;45.582;11.484;2022-09-03T06:53:37;29.80;44.50
68766;DHT22;55756;45.582;11.484;2022-09-03T06:56:12;31.60;41.10
68766;DHT22;55756;45.582;11.484;2022-09-03T06:58:47;33.40;38.20
68766;DHT22;55756;45.582;11.484;2022-09-03T07:01:20;35.40;35.30
68766;DHT22;55756;45.582;11.484;2022-09-03T07:03:51;36.90;33.00
68766;DHT22;55756;45.582;11.484;2022-09-03T07:06:18;37.70;31.00
68766;DHT22;55756;45.582;11.484;2022-09-03T07:08:45;38.50;29.90
68766;DHT22;55756;45.582;11.484;2022-09-03T07:11:13;39.20;29.10
68766;DHT22;55756;45.582;11.484;2022-09-03T07:13:42;39.60;28.40
68766;DHT22;55756;45.582;11.484;2022-09-03T07:16:11;39.00;28.00
68766;DHT22;55756;45.582;11.484;2022-09-03T07:18:38;38.90;27.70
68766;DHT22;55756;45.582;11.484;2022-09-03T07:21:09;39.80;27.00
68766;DHT22;55756;45.582;11.484;2022-09-03T07:23:36;40.80;26.30
68766;DHT22;55756;45.582;11.484;2022-09-03T07:26:04;41.20;25.70
68766;DHT22;55756;45.582;11.484;2022-09-03T07:28:31;41.70;25.70
68766;DHT22;55756;45.582;11.484;2022-09-03T07:31:06;42.00;23.80
68766;DHT22;55756;45.582;11.484;2022-09-03T07:33:31;42.00;23.80
68766;DHT22;55756;45.582;11.484;2022-09-03T07:36:06;42.60;23.60
68766;DHT22;55756;45.582;11.484;2022-09-03T07:38:33;43.60;22.90
68766;DHT22;55756;45.582;11.484;2022-09-03T07:41:07;44.50;22.30
68766;DHT22;55756;45.582;11.484;2022-09-03T07:43:41;42.70;23.60
68766;DHT22;55756;45.582;11.484;2022-09-03T07:46:21;41.50;24.10
68766;DHT22;55756;45.582;11.484;2022-09-03T07:48:55;42.10;23.90
68766;DHT22;55756;45.582;11.484;2022-09-03T07:51:24;44.00;22.50
68766;DHT22;55756;45.582;11.484;2022-09-03T07:53:53;45.90;21.20
68766;DHT22;55756;45.582;11.484;2022-09-03T07:56:21;47.60;20.20
68766;DHT22;55756;45.582;11.484;2022-09-03T07:58:47;47.80;18.50
68766;DHT22;55756;45.582;11.484;2022-09-03T08:01:15;46.90;19.20
68766;DHT22;55756;45.582;11.484;2022-09-03T08:03:46;45.40;19.90
68766;DHT22;55756;45.582;11.484;2022-09-03T08:06:14;46.20;19.40
68766;DHT22;55756;45.582;11.484;2022-09-03T08:08:40;46.90;19.00
68766;DHT22;55756;45.582;11.484;2022-09-03T08:11:15;47.80;18.90
68766;DHT22;55756;45.582;11.484;2022-09-03T08:13:46;48.60;18.40
68766;DHT22;55756;45.582;11.484;2022-09-03T08:16:16;47.00;19.30
68766;DHT22;55756;45.582;11.484;2022-09-03T08:18:45;42.90;21.50
68766;DHT22;55756;45.582;11.484;2022-09-03T08:21:16;39.30;24.80
68766;DHT22;55756;45.582;11.484;2022-09-03T08:23:45;37.90;26.60
68766;DHT22;55756;45.582;11.484;2022-09-03T08:26:12;37.90;27.30
68766;DHT22;55756;45.582;11.484;2022-09-03T08:28:38;38.90;25.40
68766;DHT22;55756;45.582;11.484;2022-09-03T08:33:38;38.40;26.70
68766;DHT22;55756;45.582;11.484;2022-09-03T08:36:10;37.50;27.70
68766;DHT22;55756;45.582;11.484;2022-09-03T08:38:41;36.20;28.80
68766;DHT22;55756;45.582;11.484;2022-09-03T08:41:16;35.80;29.50
68766;DHT22;55756;45.582;11.484;2022-09-03T08:46:48;34.10;32.00
68766;DHT22;55756;45.582;11.484;2022-09-03T08:49:31;33.30;33.00
68766;DHT22;55756;45.582;11.484;2022-09-03T08:52:02;32.80;34.20
68766;DHT22;55756;45.582;11.484;2022-09-03T08:54:31;32.40;34.60
68766;DHT22;55756;45.582;11.484;2022-09-03T08:57:01;32.10;34.80
68766;DHT22;55756;45.582;11.484;2022-09-03T08:59:31;32.30;35.10
68766;DHT22;55756;45.582;11.484;2022-09-03T09:02:16;32.20;35.20
68766;DHT22;55756;45.582;11.484;2022-09-03T09:07:27;31.60;36.30
68766;DHT22;55756;45.582;11.484;2022-09-03T09:09:59;32.30;35.20
68766;DHT22;55756;45.582;11.484;2022-09-03T09:13:37;32.00;35.20
68766;DHT22;55756;45.582;11.484;2022-09-03T09:16:35;31.80;35.20
68766;DHT22;55756;45.582;11.484;2022-09-03T09:21:49;31.70;35.70
68766;DHT22;55756;45.582;11.484;2022-09-03T09:24:31;32.10;35.70
68766;DHT22;55756;45.582;11.484;2022-09-03T09:27:02;31.90;36.00
68766;DHT22;55756;45.582;11.484;2022-09-03T09:29:35;31.50;37.00
68766;DHT22;55756;45.582;11.484;2022-09-03T09:32:01;31.30;36.50
68766;DHT22;55756;45.582;11.484;2022-09-03T09:34:33;31.70;36.40
68766;DHT22;55756;45.582;11.484;2022-09-03T09:37:03;31.90;35.90
68766;DHT22;55756;45.582;11.484;2022-09-03T09:39:29;31.40;37.00
68766;DHT22;55756;45.582;11.484;2022-09-03T09:42:01;31.30;36.70
68766;DHT22;55756;45.582;11.484;2022-09-03T09:44:30;31.20;37.40
68766;DHT22;55756;45.582;11.484;2022-09-03T09:47:13;30.80;37.70
68766;DHT22;55756;45.582;11.484;2022-09-03T09:50:00;30.50;38.40
68766;DHT22;55756;45.582;11.484;2022-09-03T09:52:28;31.30;37.20
68766;DHT22;55756;45.582;11.484;2022-09-03T09:55:07;31.10;37.40
68766;DHT22;55756;45.582;11.484;2022-09-03T09:57:34;30.50;38.20
68766;DHT22;55756;45.582;11.484;2022-09-03T10:00:06;30.00;39.40
68766;DHT22;55756;45.582;11.484;2022-09-03T10:02:51;30.30;38.70
68766;DHT22;55756;45.582;11.484;2022-09-03T10:07:58;30.80;38.00
68766;DHT22;55756;45.582;11.484;2022-09-03T10:10:25;30.50;38.40
68766;DHT22;55756;45.582;11.484;2022-09-03T10:13:05;30.20;38.60
68766;DHT22;55756;45.582;11.484;2022-09-03T10:15:50;30.20;39.40
68766;DHT22;55756;45.582;11.484;2022-09-03T10:26:56;29.60;39.00
68766;DHT22;55756;45.582;11.484;2022-09-03T10:29:23;29.20;40.60
68766;DHT22;55756;45.582;11.484;2022-09-03T10:43:07;29.20;40.20
68766;DHT22;55756;45.582;11.484;2022-09-03T10:45:56;29.20;40.30
68766;DHT22;55756;45.582;11.484;2022-09-03T10:51:26;29.50;40.30
68766;DHT22;55756;45.582;11.484;2022-09-03T11:00:05;30.40;38.70
68766;DHT22;55756;45.582;11.484;2022-09-03T11:05:20;30.20;38.50
68766;DHT22;55756;45.582;11.484;2022-09-03T11:08:27;30.30;38.50
68766;DHT22;55756;45.582;11.484;2022-09-03T11:10:59;30.30;38.50
68766;DHT22;55756;45.582;11.484;2022-09-03T11:13:37;29.70;39.10
68766;DHT22;55756;45.582;11.484;2022-09-03T11:16:11;29.20;39.10
68766;DHT22;55756;45.582;11.484;2022-09-03T11:18:52;29.20;39.60
68766;DHT22;55756;45.582;11.484;2022-09-03T11:21:23;29.00;39.90
68766;DHT22;55756;45.582;11.484;2022-09-03T11:24:13;29.00;40.20
68766;DHT22;55756;45.582;11.484;2022-09-03T11:26:43;29.10;39.60
68766;DHT22;55756;45.582;11.484;2022-09-03T11:29:46;28.90;39.40
68766;DHT22;55756;45.582;11.484;2022-09-03T11:32:21;29.00;39.30
68766;DHT22;55756;45.582;11.484;2022-09-03T11:34:51;28.90;39.90
68766;DHT22;55756;45.582;11.484;2022-09-03T11:37:27;28.90;40.20
68766;DHT22;55756;45.582;11.484;2022-09-03T11:40:13;29.30;40.20
68766;DHT22;55756;45.582;11.484;2022-09-03T11:42:44;29.10;41.20
68766;DHT22;55756;45.582;11.484;2022-09-03T11:47:52;29.00;40.80
68766;DHT22;55756;45.582;11.484;2022-09-03T11:52:49;29.10;39.80
68766;DHT22;55756;45.582;11.484;2022-09-03T11:55:29;29.10;40.20
68766;DHT22;55756;45.582;11.484;2022-09-03T12:00:45;29.10;40.10
68766;DHT22;55756;45.582;11.484;2022-09-03T12:03:13;29.20;40.30
68766;DHT22;55756;45.582;11.484;2022-09-03T12:19:59;31.10;36.60
68766;DHT22;55756;45.582;11.484;2022-09-03T12:22:28;31.40;37.00
68766;DHT22;55756;45.582;11.484;2022-09-03T12:24:54;31.50;36.10
68766;DHT22;55756;45.582;11.484;2022-09-03T12:27:25;31.30;36.30
68766;DHT22;55756;45.582;11.484;2022-09-03T12:29:57;31.20;36.10
68766;DHT22;55756;45.582;11.484;2022-09-03T12:32:33;31.10;35.80
68766;DHT22;55756;45.582;11.484;2022-09-03T12:35:12;30.60;36.90
68766;DHT22;55756;45.582;11.484;2022-09-03T12:37:41;30.60;37.40
68766;DHT22;55756;45.582;11.484;2022-09-03T12:40:19;30.60;37.30
68766;DHT22;55756;45.582;11.484;2022-09-03T12:42:46;30.60;37.00
68766;DHT22;55756;45.582;11.484;2022-09-03T12:45:13;30.60;37.80
68766;DHT22;55756;45.582;11.484;2022-09-03T12:47:42;30.50;37.10
68766;DHT22;55756;45.582;11.484;2022-09-03T12:50:20;30.50;37.50
68766;DHT22;55756;45.582;11.484;2022-09-03T12:55:37;30.50;38.40
68766;DHT22;55756;45.582;11.484;2022-09-03T12:58:10;30.40;38.30
68766;DHT22;55756;45.582;11.484;2022-09-03T13:01:04;30.50;38.70
68766;DHT22;55756;45.582;11.484;2022-09-03T13:03:42;30.40;38.40
68766;DHT22;55756;45.582;11.484;2022-09-03T13:06:14;30.30;37.80
68766;DHT22;55756;45.582;11.484;2022-09-03T13:09:11;30.30;38.00
68766;DHT22;55756;45.582;11.484;2022-09-03T13:11:37;30.00;38.40
68766;DHT22;55756;45.582;11.484;2022-09-03T13:14:09;29.80;38.50
68766;DHT22;55756;45.582;11.484;2022-09-03T13:22:35;30.60;38.90
68766;DHT22;55756;45.582;11.484;2022-09-03T13:25:27;30.90;38.10
68766;DHT22;55756;45.582;11.484;2022-09-03T13:28:10;31.00;37.20
68766;DHT22;55756;45.582;11.484;2022-09-03T13:33:23;30.90;38.10
68766;DHT22;55756;45.582;11.484;2022-09-03T13:36:16;31.00;37.50
68766;DHT22;55756;45.582;11.484;2022-09-03T13:38:54;31.10;37.40
68766;DHT22;55756;45.582;11.484;2022-09-03T13:44:43;30.80;37.50
68766;DHT22;55756;45.582;11.484;2022-09-03T13:50:16;30.50;38.90
68766;DHT22;55756;45.582;11.484;2022-09-03T13:53:13;30.40;39.50
68766;DHT22;55756;45.582;11.484;2022-09-03T13:55:47;30.40;39.40
68766;DHT22;55756;45.582;11.484;2022-09-03T14:01:25;30.30;38.70
68766;DHT22;55756;45.582;11.484;2022-09-03T14:03:55;29.80;40.00
68766;DHT22;55756;45.582;11.484;2022-09-03T14:17:29;29.70;41.20
68766;DHT22;55756;45.582;11.484;2022-09-03T14:20:05;29.80;41.30
68766;DHT22;55756;45.582;11.484;2022-09-03T14:25:23;29.90;41.00
68766;DHT22;55756;45.582;11.484;2022-09-03T14:27:49;29.90;40.80
68766;DHT22;55756;45.582;11.484;2022-09-03T14:35:43;29.80;42.20
68766;DHT22;55756;45.582;11.484;2022-09-03T15:08:01;30.50;41.10
68766;DHT22;55756;45.582;11.484;2022-09-03T15:10:37;30.50;42.20
68766;DHT22;55756;45.582;11.484;2022-09-03T15:13:19;30.30;42.80
68766;DHT22;55756;45.582;11.484;2022-09-03T15:18:46;30.00;43.90
68766;DHT22;55756;45.582;11.484;2022-09-03T15:27:09;29.80;44.20
68766;DHT22;55756;45.582;11.484;2022-09-03T15:33:28;29.70;43.60
68766;DHT22;55756;45.582;11.484;2022-09-03T15:38:07;29.50;43.70
68766;DHT22;55756;45.582;11.484;2022-09-03T15:43:26;29.50;45.00
68766;DHT22;55756;45.582;11.484;2022-09-03T15:45:59;29.40;46.60
68766;DHT22;55756;45.582;11.484;2022-09-03T15:48:47;29.20;48.00
68766;DHT22;55756;45.582;11.484;2022-09-03T15:56:52;29.10;48.30
68766;DHT22;55756;45.582;11.484;2022-09-03T15:59:40;29.10;48.80
68766;DHT22;55756;45.582;11.484;2022-09-03T16:02:16;28.90;49.50
68766;DHT22;55756;45.582;11.484;2022-09-03T16:07:40;28.70;50.10
68766;DHT22;55756;45.582;11.484;2022-09-03T16:10:13;28.50;50.20
68766;DHT22;55756;45.582;11.484;2022-09-03T16:12:58;28.50;50.10
68766;DHT22;55756;45.582;11.484;2022-09-03T16:15:28;28.50;50.00
68766;DHT22;55756;45.582;11.484;2022-09-03T16:18:11;28.40;50.50
68766;DHT22;55756;45.582;11.484;2022-09-03T16:20:46;28.40;50.60
68766;DHT22;55756;45.582;11.484;2022-09-03T16:23:22;28.30;50.60
68766;DHT22;55756;45.582;11.484;2022-09-03T16:26:03;28.30;50.60
68766;DHT22;55756;45.582;11.484;2022-09-03T16:28:51;28.30;51.00
68766;DHT22;55756;45.582;11.484;2022-09-03T16:31:39;28.20;51.50
68766;DHT22;55756;45.582;11.484;2022-09-03T16:34:24;28.20;51.30
68766;DHT22;55756;45.582;11.484;2022-09-03T16:42:52;28.00;51.90
68766;DHT22;55756;45.582;11.484;2022-09-03T17:00:07;27.50;53.80
68766;DHT22;55756;45.582;11.484;2022-09-03T17:08:22;27.40;54.40
68766;DHT22;55756;45.582;11.484;2022-09-03T17:24:44;27.10;54.50
68766;DHT22;55756;45.582;11.484;2022-09-03T17:35:08;27.00;54.50
68766;DHT22;55756;45.582;11.484;2022-09-03T17:40:20;26.90;54.60
68766;DHT22;55756;45.582;11.484;2022-09-03T17:45:30;26.60;54.60
68766;DHT22;55756;45.582;11.484;2022-09-03T17:51:07;26.50;55.40
68766;DHT22;55756;45.582;11.484;2022-09-03T17:54:32;26.50;55.60
68766;DHT22;55756;45.582;11.484;2022-09-03T17:56:53;26.60;55.30
68766;DHT22;55756;45.582;11.484;2022-09-03T18:04:56;26.50;55.80
68766;DHT22;55756;45.582;11.484;2022-09-03T18:07:42;26.40;56.10
68766;DHT22;55756;45.582;11.484;2022-09-03T18:13:05;26.40;56.10
68766;DHT22;55756;45.582;11.484;2022-09-03T18:15:44;26.40;56.40
68766;DHT22;55756;45.582;11.484;2022-09-03T18:18:42;26.40;56.30
68766;DHT22;55756;45.582;11.484;2022-09-03T18:21:11;26.40;56.40
68766;DHT22;55756;45.582;11.484;2022-09-03T18:26:55;26.30;56.30
68766;DHT22;55756;45.582;11.484;2022-09-03T18:29:47;26.30;56.40
68766;DHT22;55756;45.582;11.484;2022-09-03T18:32:33;26.30;56.30
68766;DHT22;55756;45.582;11.484;2022-09-03T18:35:18;26.30;56.30
68766;DHT22;55756;45.582;11.484;2022-09-03T18:38:04;26.20;56.50
68766;DHT22;55756;45.582;11.484;2022-09-03T18:41:49;26.20;56.80
68766;DHT22;55756;45.582;11.484;2022-09-03T18:44:38;26.20;57.00
68766;DHT22;55756;45.582;11.484;2022-09-03T18:50:47;26.10;56.20
68766;DHT22;55756;45.582;11.484;2022-09-03T18:56:42;26.10;56.10
68766;DHT22;55756;45.582;11.484;2022-09-03T19:02:32;26.10;57.20
68766;DHT22;55756;45.582;11.484;2022-09-03T19:08:43;26.10;57.50
68766;DHT22;55756;45.582;11.484;2022-09-03T19:11:40;26.00;58.70
68766;DHT22;55756;45.582;11.484;2022-09-03T19:14:50;26.10;59.70
68766;DHT22;55756;45.582;11.484;2022-09-03T19:17:51;26.00;60.70
68766;DHT22;55756;45.582;11.484;2022-09-03T19:20:40;26.00;61.60
68766;DHT22;55756;45.582;11.484;2022-09-03T19:23:28;25.80;61.90
68766;DHT22;55756;45.582;11.484;2022-09-03T19:29:49;25.40;64.60
68766;DHT22;55756;45.582;11.484;2022-09-03T19:36:43;25.20;66.10
68766;DHT22;55756;45.582;11.484;2022-09-03T19:42:41;24.70;67.60
68766;DHT22;55756;45.582;11.484;2022-09-03T19:51:51;24.30;68.70
68766;DHT22;55756;45.582;11.484;2022-09-03T19:54:39;24.30;68.80
68766;DHT22;55756;45.582;11.484;2022-09-03T19:57:24;24.30;68.40
68766;DHT22;55756;45.582;11.484;2022-09-03T20:00:11;24.30;67.60
68766;DHT22;55756;45.582;11.484;2022-09-03T20:02:57;24.30;67.80
68766;DHT22;55756;45.582;11.484;2022-09-03T20:05:42;24.40;67.60
68766;DHT22;55756;45.582;11.484;2022-09-03T20:08:28;24.30;67.90
68766;DHT22;55756;45.582;11.484;2022-09-03T20:11:18;24.40;67.90
68766;DHT22;55756;45.582;11.484;2022-09-03T20:13:44;24.40;67.80
68766;DHT22;55756;45.582;11.484;2022-09-03T20:16:45;24.40;67.80
68766;DHT22;55756;45.582;11.484;2022-09-03T20:19:32;24.40;67.90
68766;DHT22;55756;45.582;11.484;2022-09-03T20:25:00;24.30;68.20
68766;DHT22;55756;45.582;11.484;2022-09-03T20:31:00;24.40;68.10
68766;DHT22;55756;45.582;11.484;2022-09-03T20:36:50;24.40;67.30
68766;DHT22;55756;45.582;11.484;2022-09-03T20:39:27;24.50;67.20
68766;DHT22;55756;45.582;11.484;2022-09-03T20:49:52;24.30;66.70
68766;DHT22;55756;45.582;11.484;2022-09-03T20:52:24;24.30;66.90
68766;DHT22;55756;45.582;11.484;2022-09-03T20:55:04;24.30;67.10
68766;DHT22;55756;45.582;11.484;2022-09-03T21:00:10;24.20;67.20
68766;DHT22;55756;45.582;11.484;2022-09-03T21:25:34;23.90;68.40
68766;DHT22;55756;45.582;11.484;2022-09-03T21:28:41;23.90;69.00
68766;DHT22;55756;45.582;11.484;2022-09-03T21:31:32;23.80;69.20
68766;DHT22;55756;45.582;11.484;2022-09-03T21:34:07;23.80;69.50
68766;DHT22;55756;45.582;11.484;2022-09-03T21:36:34;23.70;69.30
68766;DHT22;55756;45.582;11.484;2022-09-03T21:39:13;23.70;69.50
68766;DHT22;55756;45.582;11.484;2022-09-03T21:41:54;23.70;69.90
68766;DHT22;55756;45.582;11.484;2022-09-03T21:44:52;23.70;70.20
68766;DHT22;55756;45.582;11.484;2022-09-03T21:47:21;23.70;70.20
68766;DHT22;55756;45.582;11.484;2022-09-03T22:00:38;23.20;71.00
68766;DHT22;55756;45.582;11.484;2022-09-03T22:03:05;23.20;71.00
68766;DHT22;55756;45.582;11.484;2022-09-03T22:05:39;23.10;70.90
68766;DHT22;55756;45.582;11.484;2022-09-03T22:08:10;23.00;70.70
68766;DHT22;55756;45.582;11.484;2022-09-03T22:11:06;23.10;70.50
68766;DHT22;55756;45.582;11.484;2022-09-03T22:13:48;23.30;70.00